sensor_id;sensor_type;location;lat;lon;timestamp;pressure;altitude;pressure_sealevel;temperature;humidity
25130;BME280;13308;50.860;13.664;2023-03-05T07:31:33;96403.31;;;0.92;100.00
25130;BME280;13308;50.860;13.664;2023-03-05T07:34:00;96401.69;;;0.88;100.00
25130;BME280;13308;50.860;13.664;2023-03-05T07:36:26;96403.13;;;0.82;100.00
25130;BME280;13308;50.860;13.664;2023-03-05T07:38:52;96403.97;;;0.86;100.00
25130;BME280;13308;50.860;13.664;2023-03-05T07:41:18;96400.53;;;0.63;100.00
25130;BME280;13308;50.860;13.664;2023-03-05T07:43:48;96398.22;;;0.65;100.00
25130;BME280;13308;50.860;13.664;2023-03-05T07:46:16;96392.81;;;0.65;100.00
25130;BME280;13308;50.860;13.664;2023-03-05T07:48:43;96390.97;;;0.72;100.00
25130;BME280;13308;50.860;13.664;2023-03-05T07:51:14;96393.75;;;0.76;100.00
25130;BME280;13308;50.860;13.664;2023-03-05T07:53:41;96399.88;;;0.69;100.00
25130;BME280;13308;50.860;13.664;2023-03-05T07:56:07;96385.81;;;0.64;100.00
25130;BME280;13308;50.860;13.664;2023-03-05T07:58:33;96403.25;;;0.63;100.00
25130;BME280;13308;50.860;13.664;2023-03-05T08:00:58;96392.09;;;0.68;100.00
25130;BME280;13308;50.860;13.664;2023-03-05T08:03:23;96390.31;;;0.79;100.00
25130;BME280;13308;50.860;13.664;2023-03-05T08:05:49;96394.50;;;0.73;100.00
25130;BME280;13308;50.860;13.664;2023-03-05T08:08:14;96395.31;;;0.77;100.00
25130;BME280;13308;50.860;13.664;2023-03-05T08:10:40;96391.47;;;0.78;100.00
25130;BME280;13308;50.860;13.664;2023-03-05T08:13:06;96393.34;;;0.74;100.00
25130;BME280;13308;50.860;13.664;2023-03-05T08:15:31;96386.09;;;0.81;100.00
25130;BME280;13308;50.860;13.664;2023-03-05T08:17:57;96388.91;;;0.88;100.00
25130;BME280;13308;50.860;13.664;2023-03-05T08:20:23;96379.38;;;1.01;100.00
25130;BME280;13308;50.860;13.664;2023-03-05T08:22:48;96380.47;;;1.26;100.00
25130;BME280;13308;50.860;13.664;2023-03-05T08:25:14;96378.72;;;1.41;100.00
25130;BME280;13308;50.860;13.664;2023-03-05T08:27:41;96374.38;;;1.33;100.00
25130;BME280;13308;50.860;13.664;2023-03-05T08:30:10;96371.44;;;1.48;100.00
25130;BME280;13308;50.860;13.664;2023-03-05T08:32:35;96372.28;;;1.52;100.00
25130;BME280;13308;50.860;13.664;2023-03-05T08:35:01;96363.59;;;1.40;100.00
25130;BME280;13308;50.860;13.664;2023-03-05T08:37:28;96364.09;;;1.49;100.00
25130;BME280;13308;50.860;13.664;2023-03-05T08:39:54;96369.09;;;1.47;100.00
25130;BME280;13308;50.860;13.664;2023-03-05T08:42:21;96360.03;;;1.69;100.00
25130;BME280;13308;50.860;13.664;2023-03-05T08:44:46;96359.44;;;1.86;100.00
25130;BME280;13308;50.860;13.664;2023-03-05T08:47:12;96359.63;;;2.07;100.00
25130;BME280;13308;50.860;13.664;2023-03-05T08:49:37;96358.84;;;2.03;100.00
25130;BME280;13308;50.860;13.664;2023-03-05T08:52:02;96356.25;;;1.80;100.00
25130;BME280;13308;50.860;13.664;2023-03-05T08:54:28;96365.88;;;1.71;100.00
25130;BME280;13308;50.860;13.664;2023-03-05T08:56:53;96360.69;;;1.59;100.00
25130;BME280;13308;50.860;13.664;2023-03-05T08:59:18;96363.91;;;1.68;100.00
25130;BME280;13308;50.860;13.664;2023-03-05T09:01:43;96353.13;;;1.75;100.00
25130;BME280;13308;50.860;13.664;2023-03-05T09:04:09;96348.69;;;1.63;100.00
25130;BME280;13308;50.860;13.664;2023-03-05T09:06:34;96346.44;;;1.69;100.00
25130;BME280;13308;50.860;13.664;2023-03-05T09:09:03;96352.66;;;1.69;100.00
25130;BME280;13308;50.860;13.664;2023-03-05T09:11:28;96342.25;;;1.75;100.00
25130;BME280;13308;50.860;13.664;2023-03-05T09:13:54;96340.19;;;1.65;100.00
25130;BME280;13308;50.860;13.664;2023-03-05T09:16:19;96363.44;;;1.62;100.00
25130;BME280;13308;50.860;13.664;2023-03-05T09:18:45;96355.13;;;1.45;100.00
25130;BME280;13308;50.860;13.664;2023-03-05T09:21:14;96343.50;;;1.48;100.00
25130;BME280;13308;50.860;13.664;2023-03-05T09:23:40;96344.75;;;1.57;100.00
25130;BME280;13308;50.860;13.664;2023-03-05T09:26:07;96335.00;;;1.53;100.00
25130;BME280;13308;50.860;13.664;2023-03-05T09:28:33;96342.09;;;1.61;100.00
25130;BME280;13308;50.860;13.664;2023-03-05T09:31:03;96341.84;;;1.40;100.00
25130;BME280;13308;50.860;13.664;2023-03-05T09:33:29;96336.66;;;1.61;100.00
25130;BME280;13308;50.860;13.664;2023-03-05T09:35:54;96337.78;;;1.60;100.00
25130;BME280;13308;50.860;13.664;2023-03-05T09:38:20;96328.78;;;1.49;100.00
25130;BME280;13308;50.860;13.664;2023-03-05T09:40:54;96335.19;;;1.67;100.00
25130;BME280;13308;50.860;13.664;2023-03-05T09:46:10;96332.59;;;1.81;100.00
25130;BME280;13308;50.860;13.664;2023-03-05T09:48:51;96328.56;;;2.08;100.00
25130;BME280;13308;50.860;13.664;2023-03-05T09:51:23;96334.06;;;2.15;100.00
25130;BME280;13308;50.860;13.664;2023-03-05T09:53:59;96330.94;;;2.13;100.00
25130;BME280;13308;50.860;13.664;2023-03-05T09:56:29;96328.56;;;2.08;100.00
25130;BME280;13308;50.860;13.664;2023-03-05T09:59:03;96326.31;;;2.17;100.00
25130;BME280;13308;50.860;13.664;2023-03-05T10:01:39;96331.22;;;2.01;100.00
25130;BME280;13308;50.860;13.664;2023-03-05T10:04:15;96330.75;;;1.92;100.00
25130;BME280;13308;50.860;13.664;2023-03-05T10:06:55;96325.41;;;2.02;100.00
25130;BME280;13308;50.860;13.664;2023-03-05T10:09:44;96333.19;;;2.04;100.00
25130;BME280;13308;50.860;13.664;2023-03-05T10:12:25;96324.41;;;2.21;100.00
25130;BME280;13308;50.860;13.664;2023-03-05T10:14:52;96326.31;;;2.17;100.00
25130;BME280;13308;50.860;13.664;2023-03-05T10:20:33;96320.28;;;2.41;100.00
25130;BME280;13308;50.860;13.664;2023-03-05T10:28:18;96316.41;;;3.06;100.00
25130;BME280;13308;50.860;13.664;2023-03-05T10:31:04;96313.38;;;3.22;100.00
25130;BME280;13308;50.860;13.664;2023-03-05T10:36:49;96307.19;;;3.39;97.96
25130;BME280;13308;50.860;13.664;2023-03-05T10:39:35;96299.84;;;3.50;95.38
25130;BME280;13308;50.860;13.664;2023-03-05T10:43:01;96293.66;;;3.81;94.40
25130;BME280;13308;50.860;13.664;2023-03-05T10:45:11;96287.88;;;4.14;93.42
25130;BME280;13308;50.860;13.664;2023-03-05T10:47:44;96278.50;;;3.94;93.92
25130;BME280;13308;50.860;13.664;2023-03-05T10:50:19;96272.28;;;4.14;94.61
25130;BME280;13308;50.860;13.664;2023-03-05T10:52:50;96283.50;;;4.83;93.39
25130;BME280;13308;50.860;13.664;2023-03-05T10:55:19;96285.06;;;4.84;91.66
25130;BME280;13308;50.860;13.664;2023-03-05T10:57:45;96273.44;;;3.96;91.40
25130;BME280;13308;50.860;13.664;2023-03-05T11:00:23;96267.09;;;3.36;92.96
25130;BME280;13308;50.860;13.664;2023-03-05T11:08:00;96257.97;;;2.86;95.20
25130;BME280;13308;50.860;13.664;2023-03-05T11:10:25;96251.34;;;2.91;96.79
25130;BME280;13308;50.860;13.664;2023-03-05T11:12:51;96241.25;;;2.88;97.01
25130;BME280;13308;50.860;13.664;2023-03-05T11:15:24;96241.56;;;2.72;97.91
25130;BME280;13308;50.860;13.664;2023-03-05T11:18:15;96245.81;;;2.66;97.75
25130;BME280;13308;50.860;13.664;2023-03-05T11:20:41;96235.28;;;2.65;97.34
25130;BME280;13308;50.860;13.664;2023-03-05T11:23:12;96234.56;;;2.71;98.33
25130;BME280;13308;50.860;13.664;2023-03-05T11:25:54;96229.53;;;2.84;98.40
25130;BME280;13308;50.860;13.664;2023-03-05T11:28:30;96225.72;;;2.92;97.76
25130;BME280;13308;50.860;13.664;2023-03-05T11:33:53;96219.44;;;2.81;98.97
25130;BME280;13308;50.860;13.664;2023-03-05T11:36:34;96220.94;;;2.68;96.92
25130;BME280;13308;50.860;13.664;2023-03-05T11:42:09;96221.00;;;2.82;97.82
25130;BME280;13308;50.860;13.664;2023-03-05T11:44:53;96221.31;;;2.70;98.78
25130;BME280;13308;50.860;13.664;2023-03-05T11:47:25;96216.84;;;2.34;100.00
25130;BME280;13308;50.860;13.664;2023-03-05T11:49:59;96213.69;;;2.25;100.00
25130;BME280;13308;50.860;13.664;2023-03-05T11:52:44;96213.72;;;2.32;100.00
25130;BME280;13308;50.860;13.664;2023-03-05T11:55:41;96202.09;;;2.35;100.00
25130;BME280;13308;50.860;13.664;2023-03-05T11:58:31;96207.56;;;2.38;100.00
25130;BME280;13308;50.860;13.664;2023-03-05T12:00:59;96206.75;;;2.38;100.00
25130;BME280;13308;50.860;13.664;2023-03-05T12:03:31;96202.81;;;2.25;100.00
25130;BME280;13308;50.860;13.664;2023-03-05T12:08:53;96189.47;;;2.06;100.00
25130;BME280;13308;50.860;13.664;2023-03-05T12:11:22;96199.50;;;1.95;100.00
25130;BME280;13308;50.860;13.664;2023-03-05T12:13:57;96187.94;;;2.08;100.00
25130;BME280;13308;50.860;13.664;2023-03-05T12:16:53;96189.53;;;2.16;100.00
25130;BME280;13308;50.860;13.664;2023-03-05T12:22:01;96172.91;;;2.32;100.00
25130;BME280;13308;50.860;13.664;2023-03-05T12:39:59;96157.31;;;2.18;100.00
25130;BME280;13308;50.860;13.664;2023-03-05T12:47:37;96146.09;;;2.27;100.00
25130;BME280;13308;50.860;13.664;2023-03-05T12:50:04;96150.69;;;2.16;100.00
25130;BME280;13308;50.860;13.664;2023-03-05T12:52:32;96146.09;;;2.23;100.00
25130;BME280;13308;50.860;13.664;2023-03-05T12:55:03;96148.38;;;2.18;100.00
25130;BME280;13308;50.860;13.664;2023-03-05T12:57:38;96133.59;;;2.19;100.00
25130;BME280;13308;50.860;13.664;2023-03-05T13:00:10;96137.00;;;2.02;100.00
25130;BME280;13308;50.860;13.664;2023-03-05T13:02:42;96140.59;;;2.20;100.00
25130;BME280;13308;50.860;13.664;2023-03-05T13:05:26;96132.50;;;2.27;100.00
25130;BME280;13308;50.860;13.664;2023-03-05T13:08:20;96133.72;;;2.36;100.00
25130;BME280;13308;50.860;13.664;2023-03-05T13:10:54;96128.31;;;2.47;100.00
25130;BME280;13308;50.860;13.664;2023-03-05T13:13:22;96137.66;;;2.53;100.00
25130;BME280;13308;50.860;13.664;2023-03-05T13:15:50;96131.50;;;2.70;100.00
25130;BME280;13308;50.860;13.664;2023-03-05T13:18:19;96123.66;;;2.51;100.00
25130;BME280;13308;50.860;13.664;2023-03-05T13:20:45;96124.06;;;2.56;100.00
25130;BME280;13308;50.860;13.664;2023-03-05T13:23:14;96112.81;;;2.58;100.00
25130;BME280;13308;50.860;13.664;2023-03-05T13:25:41;96133.06;;;2.71;100.00
25130;BME280;13308;50.860;13.664;2023-03-05T13:28:15;96122.56;;;2.73;100.00
25130;BME280;13308;50.860;13.664;2023-03-05T13:31:17;96117.16;;;2.87;99.60
25130;BME280;13308;50.860;13.664;2023-03-05T13:33:51;96111.38;;;3.20;99.45
25130;BME280;13308;50.860;13.664;2023-03-05T13:36:19;96117.22;;;3.32;99.37
25130;BME280;13308;50.860;13.664;2023-03-05T13:38:45;96112.94;;;3.42;99.31
25130;BME280;13308;50.860;13.664;2023-03-05T13:46:26;96115.22;;;2.91;100.00
25130;BME280;13308;50.860;13.664;2023-03-05T13:48:52;96103.50;;;2.73;100.00
25130;BME280;13308;50.860;13.664;2023-03-05T13:51:18;96095.31;;;2.59;100.00
25130;BME280;13308;50.860;13.664;2023-03-05T13:53:43;96098.06;;;2.76;100.00
25130;BME280;13308;50.860;13.664;2023-03-05T13:56:13;96087.97;;;2.77;100.00
25130;BME280;13308;50.860;13.664;2023-03-05T13:58:44;96089.50;;;2.71;100.00
25130;BME280;13308;50.860;13.664;2023-03-05T14:01:31;96090.31;;;2.89;100.00
25130;BME280;13308;50.860;13.664;2023-03-05T14:04:15;96083.69;;;2.69;100.00
25130;BME280;13308;50.860;13.664;2023-03-05T14:07:03;96087.94;;;2.59;100.00
25130;BME280;13308;50.860;13.664;2023-03-05T14:09:43;96087.50;;;2.47;100.00
25130;BME280;13308;50.860;13.664;2023-03-05T14:14:55;96079.31;;;2.40;100.00
25130;BME280;13308;50.860;13.664;2023-03-05T14:22:49;96078.50;;;2.36;100.00
25130;BME280;13308;50.860;13.664;2023-03-05T14:25:35;96069.94;;;2.23;100.00
25130;BME280;13308;50.860;13.664;2023-03-05T14:30:48;96067.59;;;2.25;100.00
25130;BME280;13308;50.860;13.664;2023-03-05T14:33:23;96069.53;;;2.25;100.00
25130;BME280;13308;50.860;13.664;2023-03-05T14:35:50;96055.88;;;2.11;100.00
25130;BME280;13308;50.860;13.664;2023-03-05T14:38:28;96053.56;;;2.16;100.00
25130;BME280;13308;50.860;13.664;2023-03-05T14:40:54;96058.63;;;2.21;100.00
25130;BME280;13308;50.860;13.664;2023-03-05T14:43:19;96069.88;;;2.16;100.00
25130;BME280;13308;50.860;13.664;2023-03-05T14:45:45;96062.16;;;2.22;100.00
25130;BME280;13308;50.860;13.664;2023-03-05T14:48:14;96052.38;;;2.10;100.00
25130;BME280;13308;50.860;13.664;2023-03-05T14:53:21;96043.47;;;2.20;100.00
25130;BME280;13308;50.860;13.664;2023-03-05T14:55:50;96039.56;;;2.14;100.00
25130;BME280;13308;50.860;13.664;2023-03-05T14:58:25;96033.75;;;2.12;100.00
25130;BME280;13308;50.860;13.664;2023-03-05T15:00:52;96067.94;;;2.13;100.00
25130;BME280;13308;50.860;13.664;2023-03-05T15:03:19;96088.44;;;1.97;100.00
25130;BME280;13308;50.860;13.664;2023-03-05T15:05:46;96075.13;;;1.78;100.00
25130;BME280;13308;50.860;13.664;2023-03-05T15:08:17;96072.72;;;1.66;100.00
25130;BME280;13308;50.860;13.664;2023-03-05T15:10:44;96056.00;;;1.57;100.00
25130;BME280;13308;50.860;13.664;2023-03-05T15:13:11;96049.78;;;1.60;100.00
25130;BME280;13308;50.860;13.664;2023-03-05T15:15:37;96053.25;;;1.53;100.00
25130;BME280;13308;50.860;13.664;2023-03-05T15:18:03;96050.13;;;1.51;100.00
25130;BME280;13308;50.860;13.664;2023-03-05T15:20:29;96051.69;;;1.49;100.00
25130;BME280;13308;50.860;13.664;2023-03-05T15:22:55;96046.59;;;1.44;100.00
25130;BME280;13308;50.860;13.664;2023-03-05T15:25:22;96052.00;;;1.40;100.00
25130;BME280;13308;50.860;13.664;2023-03-05T15:27:49;96045.88;;;1.54;100.00
25130;BME280;13308;50.860;13.664;2023-03-05T15:30:24;96037.69;;;1.50;100.00
25130;BME280;13308;50.860;13.664;2023-03-05T15:32:52;96039.72;;;1.60;100.00
25130;BME280;13308;50.860;13.664;2023-03-05T15:35:18;96027.63;;;1.54;100.00
25130;BME280;13308;50.860;13.664;2023-03-05T15:37:43;96028.44;;;1.58;100.00
25130;BME280;13308;50.860;13.664;2023-03-05T15:40:09;96034.66;;;1.59;100.00
25130;BME280;13308;50.860;13.664;2023-03-05T15:42:34;96031.16;;;1.55;100.00
25130;BME280;13308;50.860;13.664;2023-03-05T15:45:00;96020.69;;;1.60;100.00
25130;BME280;13308;50.860;13.664;2023-03-05T15:47:25;96026.13;;;1.60;100.00
25130;BME280;13308;50.860;13.664;2023-03-05T15:49:50;96032.31;;;1.57;100.00
25130;BME280;13308;50.860;13.664;2023-03-05T15:52:15;96024.56;;;1.56;100.00
25130;BME280;13308;50.860;13.664;2023-03-05T15:54:41;96022.22;;;1.58;100.00
25130;BME280;13308;50.860;13.664;2023-03-05T15:57:09;96024.97;;;1.61;100.00
25130;BME280;13308;50.860;13.664;2023-03-05T15:59:35;96018.34;;;1.59;100.00
25130;BME280;13308;50.860;13.664;2023-03-05T16:02:00;96004.75;;;1.59;100.00
25130;BME280;13308;50.860;13.664;2023-03-05T16:04:26;96010.56;;;1.57;100.00
25130;BME280;13308;50.860;13.664;2023-03-05T16:06:54;96002.06;;;1.66;100.00
25130;BME280;13308;50.860;13.664;2023-03-05T16:09:23;95998.22;;;1.67;100.00
25130;BME280;13308;50.860;13.664;2023-03-05T16:11:50;96002.06;;;1.62;100.00
25130;BME280;13308;50.860;13.664;2023-03-05T16:14:23;96006.31;;;1.60;100.00
25130;BME280;13308;50.860;13.664;2023-03-05T16:16:51;96003.59;;;1.60;100.00
25130;BME280;13308;50.860;13.664;2023-03-05T16:19:18;96004.78;;;1.66;100.00
25130;BME280;13308;50.860;13.664;2023-03-05T16:21:44;96008.69;;;1.68;100.00
25130;BME280;13308;50.860;13.664;2023-03-05T16:24:09;95993.56;;;1.67;100.00
25130;BME280;13308;50.860;13.664;2023-03-05T16:26:36;95998.97;;;1.67;100.00
25130;BME280;13308;50.860;13.664;2023-03-05T16:29:02;96007.94;;;1.68;100.00
25130;BME280;13308;50.860;13.664;2023-03-05T16:31:29;95993.16;;;1.62;100.00
25130;BME280;13308;50.860;13.664;2023-03-05T16:33:55;95993.97;;;1.73;100.00
25130;BME280;13308;50.860;13.664;2023-03-05T16:36:23;96000.56;;;1.72;100.00
25130;BME280;13308;50.860;13.664;2023-03-05T16:38:51;95995.50;;;1.67;100.00
25130;BME280;13308;50.860;13.664;2023-03-05T16:41:16;96000.50;;;1.58;100.00
25130;BME280;13308;50.860;13.664;2023-03-05T16:43:43;96002.03;;;1.59;100.00
25130;BME280;13308;50.860;13.664;2023-03-05T16:46:10;96008.59;;;1.51;100.00
25130;BME280;13308;50.860;13.664;2023-03-05T16:48:35;96004.34;;;1.50;100.00
25130;BME280;13308;50.860;13.664;2023-03-05T16:51:01;96006.63;;;1.48;100.00
25130;BME280;13308;50.860;13.664;2023-03-05T16:53:27;96002.00;;;1.48;100.00
25130;BME280;13308;50.860;13.664;2023-03-05T16:55:52;96005.06;;;1.43;100.00
25130;BME280;13308;50.860;13.664;2023-03-05T16:58:17;96000.44;;;1.44;100.00
25130;BME280;13308;50.860;13.664;2023-03-05T17:00:43;96008.22;;;1.49;100.00
25130;BME280;13308;50.860;13.664;2023-03-05T17:03:08;95997.31;;;1.45;100.00
25130;BME280;13308;50.860;13.664;2023-03-05T17:05:35;95998.88;;;1.43;100.00
25130;BME280;13308;50.860;13.664;2023-03-05T17:08:01;96002.38;;;1.47;100.00
25130;BME280;13308;50.860;13.664;2023-03-05T17:10:31;96000.44;;;1.44;100.00
25130;BME280;13308;50.860;13.664;2023-03-05T17:12:56;95993.47;;;1.50;100.00
25130;BME280;13308;50.860;13.664;2023-03-05T17:15:22;95996.53;;;1.45;100.00
25130;BME280;13308;50.860;13.664;2023-03-05T17:17:48;96001.97;;;1.45;100.00
25130;BME280;13308;50.860;13.664;2023-03-05T17:20:13;95997.38;;;1.56;100.00
25130;BME280;13308;50.860;13.664;2023-03-05T17:22:39;95998.09;;;1.46;100.00
25130;BME280;13308;50.860;13.664;2023-03-05T17:25:04;96001.97;;;1.45;100.00
25130;BME280;13308;50.860;13.664;2023-03-05T17:27:30;96004.31;;;1.43;100.00
25130;BME280;13308;50.860;13.664;2023-03-05T17:29:55;96005.03;;;1.40;100.00
25130;BME280;13308;50.860;13.664;2023-03-05T17:32:20;96006.59;;;1.41;100.00
25130;BME280;13308;50.860;13.664;2023-03-05T17:34:46;95991.84;;;1.38;100.00
25130;BME280;13308;50.860;13.664;2023-03-05T17:37:11;95999.63;;;1.40;100.00
25130;BME280;13308;50.860;13.664;2023-03-05T17:39:37;95999.63;;;1.40;100.00
25130;BME280;13308;50.860;13.664;2023-03-05T17:42:03;96006.59;;;1.37;100.00
25130;BME280;13308;50.860;13.664;2023-03-05T17:44:28;96005.44;;;1.42;100.00
25130;BME280;13308;50.860;13.664;2023-03-05T17:46:53;96001.97;;;1.41;100.00
25130;BME280;13308;50.860;13.664;2023-03-05T17:49:19;96008.88;;;1.32;100.00
25130;BME280;13308;50.860;13.664;2023-03-05T17:51:44;96002.69;;;1.35;100.00
25130;BME280;13308;50.860;13.664;2023-03-05T17:54:10;95999.56;;;1.33;100.00
25130;BME280;13308;50.860;13.664;2023-03-05T17:56:35;95996.47;;;1.31;100.00
25130;BME280;13308;50.860;13.664;2023-03-05T17:59:00;95995.69;;;1.34;100.00
25130;BME280;13308;50.860;13.664;2023-03-05T18:01:29;95995.69;;;1.34;100.00
25130;BME280;13308;50.860;13.664;2023-03-05T18:03:55;96003.44;;;1.28;100.00
25130;BME280;13308;50.860;13.664;2023-03-05T18:06:21;95991.41;;;1.29;100.00
25130;BME280;13308;50.860;13.664;2023-03-05T18:08:46;95991.44;;;1.36;100.00
25130;BME280;13308;50.860;13.664;2023-03-05T18:11:12;96001.13;;;1.34;100.00
25130;BME280;13308;50.860;13.664;2023-03-05T18:13:37;95988.69;;;1.29;100.00
25130;BME280;13308;50.860;13.664;2023-03-05T18:16:02;95994.16;;;1.33;100.00
25130;BME280;13308;50.860;13.664;2023-03-05T18:18:28;95995.69;;;1.34;100.00
25130;BME280;13308;50.860;13.664;2023-03-05T18:20:53;95986.75;;;1.30;100.00
25130;BME280;13308;50.860;13.664;2023-03-05T18:23:19;95993.34;;;1.32;100.00
25130;BME280;13308;50.860;13.664;2023-03-05T18:25:44;95980.91;;;1.28;100.00
25130;BME280;13308;50.860;13.664;2023-03-05T18:28:11;95982.47;;;1.29;100.00
25130;BME280;13308;50.860;13.664;2023-03-05T18:30:38;95982.50;;;1.32;100.00
25130;BME280;13308;50.860;13.664;2023-03-05T18:33:05;95980.56;;;1.33;100.00
25130;BME280;13308;50.860;13.664;2023-03-05T18:35:31;95973.22;;;1.37;100.00
25130;BME280;13308;50.860;13.664;2023-03-05T18:37:58;95982.94;;;1.38;100.00
25130;BME280;13308;50.860;13.664;2023-03-05T18:40:27;95984.84;;;1.34;100.00
25130;BME280;13308;50.860;13.664;2023-03-05T18:42:52;95976.31;;;1.35;100.00
25130;BME280;13308;50.860;13.664;2023-03-05T18:45:19;95983.31;;;1.36;100.00
25130;BME280;13308;50.860;13.664;2023-03-05T18:47:45;95979.41;;;1.34;100.00
25130;BME280;13308;50.860;13.664;2023-03-05T18:50:13;95976.66;;;1.30;100.00
25130;BME280;13308;50.860;13.664;2023-03-05T18:52:40;95977.84;;;1.33;100.00
25130;BME280;13308;50.860;13.664;2023-03-05T18:55:06;95988.72;;;1.33;100.00
25130;BME280;13308;50.860;13.664;2023-03-05T18:57:31;95987.53;;;1.30;100.00
25130;BME280;13308;50.860;13.664;2023-03-05T18:59:57;95989.47;;;1.30;100.00
25130;BME280;13308;50.860;13.664;2023-03-05T19:02:22;95984.78;;;1.27;100.00
25130;BME280;13308;50.860;13.664;2023-03-05T19:04:47;95971.59;;;1.25;100.00
25130;BME280;13308;50.860;13.664;2023-03-05T19:07:13;95973.97;;;1.34;100.00
25130;BME280;13308;50.860;13.664;2023-03-05T19:09:42;95979.41;;;1.34;100.00
25130;BME280;13308;50.860;13.664;2023-03-05T19:12:22;95973.94;;;1.30;100.00
25130;BME280;13308;50.860;13.664;2023-03-05T19:14:48;95969.69;;;1.29;100.00
25130;BME280;13308;50.860;13.664;2023-03-05T19:17:14;95970.06;;;1.28;100.00
25130;BME280;13308;50.860;13.664;2023-03-05T19:19:40;95971.66;;;1.36;100.00
25130;BME280;13308;50.860;13.664;2023-03-05T19:22:10;95974.75;;;1.34;100.00
25130;BME280;13308;50.860;13.664;2023-03-05T19:24:36;95973.19;;;1.33;100.00
25130;BME280;13308;50.860;13.664;2023-03-05T19:27:03;95964.66;;;1.35;100.00
